createdAt,value
2019-01-19T00:01:49.563Z,19.77
2019-01-19T00:04:39.048Z,18.93
2019-01-19T00:07:26.798Z,20.03
2019-01-19T00:10:17.643Z,18.93
2019-01-19T00:13:07.157Z,19.50
2019-01-19T00:15:49.259Z,18.93
2019-01-19T00:18:37.354Z,18.97
2019-01-19T00:21:25.289Z,18.37
2019-01-19T00:23:58.319Z,17.53
2019-01-19T00:26:56.756Z,19.00
2019-01-19T00:29:35.922Z,18.93
2019-01-19T00:32:14.864Z,19.23
2019-01-19T00:34:54.178Z,18.23
2019-01-19T00:37:27.329Z,18.80
2019-01-19T00:40:00.824Z,17.47
2019-01-19T00:42:36.895Z,15.83
2019-01-19T00:45:21.753Z,18.50
2019-01-19T00:47:57.450Z,17.47
2019-01-19T00:50:56.305Z,18.80
2019-01-19T00:53:32.527Z,19.53
2019-01-19T00:56:28.807Z,18.60
2019-01-19T00:59:01.688Z,17.80
2019-01-19T01:01:53.944Z,20.10
2019-01-19T01:04:36.187Z,23.60
2019-01-19T01:07:30.272Z,24.00
2019-01-19T01:10:03.153Z,17.30
2019-01-19T01:12:44.934Z,15.77
2019-01-19T01:15:20.754Z,21.80
2019-01-19T01:17:53.085Z,15.50
2019-01-19T01:20:53.679Z,19.20
2019-01-19T01:23:29.531Z,17.97
2019-01-19T01:26:23.621Z,17.67
2019-01-19T01:29:26.546Z,16.03
2019-01-19T01:32:05.026Z,27.63
2019-01-19T01:34:40.846Z,21.47
2019-01-19T01:37:20.044Z,15.43
2019-01-19T01:40:02.251Z,19.37
2019-01-19T01:42:47.228Z,16.80
2019-01-19T01:45:36.949Z,19.13
2019-01-19T01:48:12.693Z,14.73
2019-01-19T01:50:51.735Z,19.93
2019-01-19T01:53:42.560Z,20.57
2019-01-19T01:56:12.868Z,20.57
2019-01-19T01:58:48.599Z,18.30
2019-01-19T02:01:24.394Z,19.53
2019-01-19T02:04:15.303Z,18.67
2019-01-19T02:06:53.931Z,16.87
2019-01-19T02:09:48.758Z,17.60
2019-01-19T02:12:39.815Z,17.20
2019-01-19T02:15:37.251Z,16.93
2019-01-19T02:18:21.805Z,16.00
2019-01-19T02:21:11.382Z,14.90
2019-01-19T02:24:06.156Z,16.73
2019-01-19T02:26:51.285Z,18.57
2019-01-19T02:29:25.813Z,18.50
2019-01-19T02:32:10.481Z,19.07
2019-01-19T02:34:56.130Z,17.73
2019-01-19T02:37:29.299Z,19.67
2019-01-19T02:40:14.294Z,19.63
2019-01-19T02:42:50.407Z,19.97
2019-01-19T02:45:35.207Z,19.20
2019-01-19T02:48:28.219Z,18.83
2019-01-19T02:51:03.971Z,18.97
2019-01-19T02:53:51.787Z,20.27
2019-01-19T02:56:33.971Z,21.00
2019-01-19T02:59:07.172Z,18.97
2019-01-19T03:01:55.068Z,19.53
2019-01-19T03:04:44.229Z,17.63
2019-01-19T03:07:41.787Z,18.77
2019-01-19T03:10:33.545Z,19.57
2019-01-19T03:13:21.132Z,18.80
2019-01-19T03:16:06.540Z,20.43
2019-01-19T03:18:39.857Z,19.00
2019-01-19T03:21:32.655Z,19.93
2019-01-19T03:24:17.737Z,20.90
2019-01-19T03:26:53.706Z,20.20
2019-01-19T03:29:42.282Z,20.77
2019-01-19T03:32:22.499Z,22.73
2019-01-19T03:34:55.580Z,23.00
2019-01-19T03:38:03.013Z,23.70
2019-01-19T03:40:36.310Z,28.47
2019-01-19T03:43:37.384Z,26.67
2019-01-19T03:46:27.038Z,29.00
2019-01-19T03:49:22.988Z,19.77
2019-01-19T03:52:08.442Z,25.43
2019-01-19T03:54:56.733Z,25.87
2019-01-19T03:57:38.383Z,28.90
2019-01-19T04:00:20.062Z,27.70
2019-01-19T04:03:02.742Z,29.23
2019-01-19T04:05:41.555Z,29.50
2019-01-19T04:08:30.971Z,27.97
2019-01-19T04:11:15.696Z,27.20
2019-01-19T04:13:54.983Z,29.30
2019-01-19T04:16:57.117Z,29.40
2019-01-19T04:19:42.121Z,28.50
2019-01-19T04:22:15.164Z,27.30
2019-01-19T04:24:48.160Z,27.63
2019-01-19T04:27:18.219Z,27.97
2019-01-19T04:29:47.990Z,27.07
2019-01-19T04:32:17.748Z,26.30
2019-01-19T04:34:47.477Z,26.37
2019-01-19T04:37:17.618Z,25.57
2019-01-19T04:39:47.430Z,27.70
2019-01-19T04:42:17.480Z,25.00
2019-01-19T04:44:47.732Z,26.90
2019-01-19T04:47:17.690Z,29.03
2019-01-19T04:49:47.750Z,25.63
2019-01-19T04:52:17.738Z,24.50
2019-01-19T04:54:48.491Z,24.70
2019-01-19T04:57:18.381Z,27.93
2019-01-19T04:59:48.408Z,26.57
2019-01-19T05:02:18.079Z,24.23
2019-01-19T05:04:47.904Z,22.57
2019-01-19T05:07:17.789Z,24.60
2019-01-19T05:09:47.969Z,23.23
2019-01-19T05:12:17.861Z,22.17
2019-01-19T05:14:47.768Z,22.77
2019-01-19T05:17:17.656Z,24.90
2019-01-19T05:19:47.522Z,23.13
2019-01-19T05:22:17.712Z,25.93
2019-01-19T05:24:47.484Z,25.47
2019-01-19T05:27:17.254Z,26.60
2019-01-19T05:29:47.434Z,24.90
2019-01-19T05:32:17.602Z,22.10
2019-01-19T05:34:47.616Z,24.37
2019-01-19T05:37:17.585Z,24.83
2019-01-19T05:39:47.555Z,25.30
2019-01-19T05:42:20.902Z,24.40
2019-01-19T05:44:51.375Z,26.00
2019-01-19T05:47:21.423Z,27.70
2019-01-19T05:49:51.987Z,28.87
2019-01-19T05:52:22.394Z,26.10
2019-01-19T05:54:52.175Z,28.90
2019-01-19T05:57:22.033Z,24.80
2019-01-19T05:59:52.050Z,25.23
2019-01-19T06:02:23.771Z,26.67
2019-01-19T06:04:53.670Z,26.90
2019-01-19T06:07:23.594Z,24.30
2019-01-19T06:09:55.758Z,23.60
2019-01-19T06:12:25.763Z,23.13
2019-01-19T06:14:55.643Z,24.80
2019-01-19T06:17:25.980Z,26.00
2019-01-19T06:19:56.425Z,24.63
2019-01-19T06:22:26.347Z,27.43
2019-01-19T06:24:56.285Z,25.97
2019-01-19T06:27:26.256Z,26.37
2019-01-19T06:29:56.337Z,26.80
2019-01-19T06:32:26.060Z,25.57
2019-01-19T06:34:56.139Z,24.93
2019-01-19T06:37:26.220Z,26.03
2019-01-19T06:39:56.135Z,28.23
2019-01-19T06:42:25.918Z,27.37
2019-01-19T06:44:55.743Z,25.53
2019-01-19T06:47:26.014Z,28.13
2019-01-19T06:49:56.476Z,26.97
2019-01-19T06:52:26.791Z,26.67
2019-01-19T06:54:56.752Z,29.00
2019-01-19T06:57:26.984Z,25.23
2019-01-19T06:59:57.193Z,23.47
2019-01-19T07:02:27.231Z,25.27
2019-01-19T07:04:57.223Z,26.43
2019-01-19T07:07:27.244Z,27.17
2019-01-19T07:09:57.414Z,27.63
2019-01-19T07:12:27.344Z,25.53
2019-01-19T07:14:58.099Z,25.53
2019-01-19T07:17:31.186Z,26.63
2019-01-19T07:20:14.407Z,29.03
2019-01-19T07:22:44.187Z,27.13
2019-01-19T07:25:14.793Z,26.23
2019-01-19T07:27:44.579Z,26.20
2019-01-19T07:30:16.487Z,27.20
2019-01-19T07:32:47.329Z,31.73
2019-01-19T07:35:17.848Z,23.43
2019-01-19T07:37:47.571Z,23.77
2019-01-19T07:40:18.778Z,26.70
2019-01-19T07:42:50.375Z,24.73
2019-01-19T07:45:20.586Z,30.07
2019-01-19T07:47:50.421Z,30.00
2019-01-19T07:50:20.452Z,26.80
2019-01-19T07:52:50.251Z,30.73
2019-01-19T07:55:20.483Z,29.83
2019-01-19T07:57:50.382Z,31.83
2019-01-19T08:00:29.403Z,30.90
2019-01-19T08:02:59.305Z,30.30
2019-01-19T08:05:29.414Z,27.70
2019-01-19T08:07:59.564Z,27.73
2019-01-19T08:10:29.394Z,29.77
2019-01-19T08:12:59.450Z,30.07
2019-01-19T08:15:30.216Z,31.07
2019-01-19T08:18:01.057Z,32.93
2019-01-19T08:20:31.293Z,31.73
2019-01-19T08:23:01.460Z,31.27
2019-01-19T08:25:31.470Z,33.20
2019-01-19T08:28:01.450Z,34.67
2019-01-19T08:30:31.601Z,31.40
2019-01-19T08:33:01.521Z,31.80
2019-01-19T08:35:31.366Z,30.17
2019-01-19T08:38:01.446Z,31.60
2019-01-19T08:40:33.963Z,34.70
2019-01-19T08:43:06.295Z,33.83
2019-01-19T08:45:36.189Z,34.17
2019-01-19T08:48:06.091Z,33.17
2019-01-19T08:50:36.174Z,32.53
2019-01-19T08:53:06.087Z,32.43
2019-01-19T08:55:36.224Z,31.80
2019-01-19T08:58:06.135Z,34.17
2019-01-19T09:00:36.154Z,31.87
2019-01-19T09:03:06.132Z,31.83
2019-01-19T09:05:36.116Z,29.60
2019-01-19T09:08:06.028Z,26.57
2019-01-19T09:10:35.854Z,24.50
2019-01-19T09:13:05.850Z,24.47
2019-01-19T09:15:35.937Z,21.17
2019-01-19T09:18:05.714Z,20.90
2019-01-19T09:20:35.509Z,21.60
2019-01-19T09:23:12.750Z,19.53
2019-01-19T09:25:42.626Z,18.93
2019-01-19T09:28:12.987Z,18.40
2019-01-19T09:30:43.715Z,20.53
2019-01-19T09:33:13.843Z,19.03
2019-01-19T09:35:45.779Z,19.50
2019-01-19T09:38:16.299Z,18.67
2019-01-19T09:40:46.512Z,18.53
2019-01-19T09:43:16.323Z,17.33
2019-01-19T09:45:45.964Z,17.80
2019-01-19T09:48:15.896Z,17.37
2019-01-19T09:50:45.782Z,16.33
2019-01-19T09:53:15.560Z,16.97
2019-01-19T09:55:45.826Z,17.93
2019-01-19T09:58:19.929Z,18.27
2019-01-19T10:00:49.864Z,18.03
2019-01-19T10:03:19.879Z,16.77
2019-01-19T10:05:49.968Z,17.47
2019-01-19T10:08:19.763Z,18.20
2019-01-19T10:10:49.777Z,18.10
2019-01-19T10:13:19.868Z,17.07
2019-01-19T10:15:49.949Z,16.67
2019-01-19T10:18:21.237Z,17.20
2019-01-19T10:20:51.729Z,17.70
2019-01-19T10:23:21.900Z,17.97
2019-01-19T10:25:51.604Z,17.57
2019-01-19T10:28:21.709Z,19.13
2019-01-19T10:30:51.788Z,18.20
2019-01-19T10:33:21.768Z,17.50
2019-01-19T10:35:51.345Z,19.03
2019-01-19T10:38:21.025Z,18.03
2019-01-19T10:40:50.780Z,18.07
2019-01-19T10:43:21.284Z,17.87
2019-01-19T10:45:51.512Z,18.80
2019-01-19T10:48:21.508Z,17.20
2019-01-19T10:50:51.387Z,17.87
2019-01-19T10:53:21.184Z,16.97
2019-01-19T10:55:50.878Z,18.00
2019-01-19T10:58:20.663Z,17.17
2019-01-19T11:00:52.090Z,18.60
2019-01-19T11:03:21.851Z,17.93
2019-01-19T11:05:51.945Z,17.33
2019-01-19T11:08:21.944Z,18.67
2019-01-19T11:10:51.940Z,19.03
2019-01-19T11:13:21.785Z,17.37
2019-01-19T11:15:57.902Z,16.90
2019-01-19T11:18:27.704Z,16.20
2019-01-19T11:20:57.864Z,17.47
2019-01-19T11:23:27.850Z,16.60
2019-01-19T11:25:57.774Z,17.00
2019-01-19T11:28:27.980Z,17.77
2019-01-19T11:30:58.375Z,17.57
2019-01-19T11:33:28.403Z,17.90
2019-01-19T11:36:00.152Z,18.23
2019-01-19T11:38:29.880Z,16.50
2019-01-19T11:40:59.760Z,15.27
2019-01-19T11:43:29.771Z,16.10
2019-01-19T11:46:00.130Z,17.17
2019-01-19T11:48:29.823Z,16.63
2019-01-19T11:50:59.615Z,15.90
2019-01-19T11:53:29.406Z,14.57
2019-01-19T11:55:59.745Z,14.27
2019-01-19T11:58:29.561Z,13.93
2019-01-19T12:00:59.535Z,14.53
2019-01-19T12:03:31.103Z,14.60
2019-01-19T12:06:02.693Z,13.97
2019-01-19T12:08:32.671Z,14.97
2019-01-19T12:11:02.799Z,14.90
2019-01-19T12:13:32.657Z,16.00
2019-01-19T12:16:02.495Z,16.27
2019-01-19T12:18:32.240Z,16.30
2019-01-19T12:21:02.603Z,16.10
2019-01-19T12:23:32.923Z,15.90
2019-01-19T12:26:02.831Z,15.93
2019-01-19T12:28:32.791Z,16.87
2019-01-19T12:31:02.680Z,15.67
2019-01-19T12:33:34.654Z,15.67
2019-01-19T12:36:04.339Z,15.17
2019-01-19T12:38:34.695Z,16.10
2019-01-19T12:41:04.483Z,16.87
2019-01-19T12:43:34.415Z,16.07
2019-01-19T12:46:04.578Z,17.03
2019-01-19T12:48:34.624Z,16.07
2019-01-19T12:51:04.332Z,16.40
2019-01-19T12:53:34.153Z,17.13
2019-01-19T12:56:03.829Z,16.83
2019-01-19T12:58:33.902Z,15.93
2019-01-19T13:01:03.673Z,16.43
2019-01-19T13:03:35.704Z,17.03
2019-01-19T13:06:16.109Z,17.30
2019-01-19T13:08:46.850Z,16.17
2019-01-19T13:11:35.191Z,16.93
2019-01-19T13:14:05.283Z,16.37
2019-01-19T13:16:56.317Z,15.87
2019-01-19T13:19:35.383Z,15.70
2019-01-19T13:22:26.342Z,17.00
2019-01-19T13:25:08.213Z,18.20
2019-01-19T13:27:44.440Z,18.87
2019-01-19T13:30:24.988Z,19.97
2019-01-19T13:33:10.159Z,18.63
2019-01-19T13:36:01.265Z,19.47
2019-01-19T13:39:06.789Z,18.80
2019-01-19T13:42:00.581Z,18.17
2019-01-19T13:44:45.967Z,18.43
2019-01-19T13:47:41.145Z,19.17
2019-01-19T13:50:27.712Z,18.03
2019-01-19T13:53:27.110Z,18.33
2019-01-19T13:56:30.651Z,18.43
2019-01-19T13:59:19.263Z,17.30
2019-01-19T14:02:19.387Z,17.07
2019-01-19T14:05:27.018Z,18.17
2019-01-19T14:08:18.312Z,16.00
2019-01-19T14:13:46.204Z,15.80
2019-01-19T14:16:20.779Z,17.40
2019-01-19T14:19:16.425Z,16.10
2019-01-19T14:21:53.518Z,16.60
2019-01-19T14:24:53.757Z,16.33
2019-01-19T14:27:30.449Z,16.83
2019-01-19T14:30:13.453Z,15.40
2019-01-19T14:33:07.370Z,16.50
2019-01-19T14:36:09.011Z,16.50
2019-01-19T14:41:56.396Z,17.20
2019-01-19T14:44:48.547Z,17.37
2019-01-19T14:47:24.190Z,16.20
2019-01-19T14:50:06.428Z,18.67
2019-01-19T14:52:49.113Z,17.63
2019-01-19T14:55:38.688Z,17.13
2019-01-19T14:58:24.717Z,18.47
2019-01-19T15:01:01.421Z,18.13
2019-01-19T15:03:44.387Z,18.70
2019-01-19T15:06:22.623Z,20.30
2019-01-19T15:09:03.993Z,21.33
2019-01-19T15:11:55.401Z,23.00
2019-01-19T15:14:32.420Z,24.03
2019-01-19T15:17:27.489Z,23.33
2019-01-19T15:20:13.251Z,25.83
2019-01-19T15:23:04.364Z,25.60
2019-01-19T15:26:11.377Z,26.00
2019-01-19T15:28:46.303Z,25.17
2019-01-19T15:31:20.645Z,34.67
2019-01-19T15:34:13.560Z,24.50
2019-01-19T15:37:04.747Z,20.10
2019-01-19T15:39:48.010Z,20.97
2019-01-19T15:42:38.390Z,23.27
2019-01-19T15:45:18.629Z,23.30
2019-01-19T15:48:27.061Z,23.63
2019-01-19T15:51:24.637Z,27.37
2019-01-19T15:54:06.715Z,25.20
2019-01-19T15:56:46.065Z,22.83
2019-01-19T15:59:35.962Z,23.50
2019-01-19T16:02:22.094Z,21.03
2019-01-19T16:05:31.651Z,22.83
2019-01-19T16:08:54.628Z,22.73
2019-01-19T16:11:43.595Z,22.67
2019-01-19T16:14:42.874Z,22.87
2019-01-19T16:17:30.781Z,21.67
2019-01-19T16:20:15.923Z,22.30
2019-01-19T16:22:54.894Z,22.47
2019-01-19T16:25:43.021Z,22.33
2019-01-19T16:28:35.579Z,20.83
2019-01-19T16:31:14.694Z,21.77
2019-01-19T16:33:53.454Z,21.67
2019-01-19T16:36:45.056Z,23.90
2019-01-19T16:39:25.822Z,21.83
2019-01-19T16:42:05.811Z,21.77
2019-01-19T16:44:56.581Z,23.30
2019-01-19T16:47:51.288Z,20.67
2019-01-19T16:50:46.724Z,21.87
2019-01-19T16:53:31.841Z,19.07
2019-01-19T16:56:05.163Z,20.90
2019-01-19T16:58:54.865Z,21.20
2019-01-19T17:01:33.678Z,21.87
2019-01-19T17:04:13.505Z,21.53
2019-01-19T17:06:51.878Z,23.60
2019-01-19T17:09:32.863Z,23.83
2019-01-19T17:12:14.137Z,21.83
2019-01-19T17:14:58.996Z,21.90
2019-01-19T17:18:05.884Z,19.67
2019-01-19T17:20:54.302Z,21.83
2019-01-19T17:23:48.673Z,22.40
2019-01-19T17:26:36.655Z,21.80
2019-01-19T17:29:28.013Z,23.07
2019-01-19T17:32:12.856Z,22.07
2019-01-19T17:34:54.882Z,21.73
2019-01-19T17:37:30.841Z,24.67
2019-01-19T17:40:07.839Z,29.23
2019-01-19T17:42:41.046Z,28.80
2019-01-19T17:45:30.831Z,21.77
2019-01-19T17:48:06.286Z,25.27
2019-01-19T17:50:45.256Z,22.57
2019-01-19T17:53:24.073Z,23.47
2019-01-19T17:56:06.086Z,23.77
2019-01-19T17:58:45.124Z,23.80
2019-01-19T18:01:29.964Z,25.27
2019-01-19T18:04:12.662Z,21.63
2019-01-19T18:06:54.356Z,23.03
2019-01-19T18:09:27.482Z,21.03
2019-01-19T18:12:00.438Z,22.40
2019-01-19T18:14:42.412Z,22.13
2019-01-19T18:17:30.870Z,21.80
2019-01-19T18:20:36.151Z,21.73
2019-01-19T18:23:24.510Z,21.97
2019-01-19T18:26:15.639Z,23.17
2019-01-19T18:28:58.566Z,24.03
2019-01-19T18:31:34.416Z,21.83
2019-01-19T18:34:19.163Z,20.47
2019-01-19T18:36:57.844Z,20.33
2019-01-19T18:39:36.838Z,21.90
2019-01-19T18:42:13.052Z,22.37
2019-01-19T18:45:07.251Z,21.53
2019-01-19T18:47:49.567Z,22.63
2019-01-19T18:50:32.358Z,22.90
2019-01-19T18:53:18.262Z,26.97
2019-01-19T18:55:53.947Z,23.33
2019-01-19T18:58:32.663Z,20.20
2019-01-19T19:01:08.396Z,23.03
2019-01-19T19:03:59.935Z,23.30
2019-01-19T19:07:01.562Z,21.30
2019-01-19T19:09:37.154Z,21.73
2019-01-19T19:12:16.025Z,20.50
2019-01-19T19:15:19.873Z,20.73
2019-01-19T19:18:07.727Z,24.87
2019-01-19T19:20:43.464Z,23.57
2019-01-19T19:23:22.424Z,24.13
2019-01-19T19:26:19.788Z,22.00
2019-01-19T19:28:59.020Z,23.13
2019-01-19T19:31:35.810Z,21.43
2019-01-19T19:34:11.708Z,23.30
2019-01-19T19:36:59.965Z,21.97
2019-01-19T19:39:35.670Z,22.80
2019-01-19T19:42:35.320Z,21.33
2019-01-19T19:45:08.350Z,21.57
2019-01-19T19:47:43.974Z,24.80
2019-01-19T19:50:23.090Z,21.07
2019-01-19T19:52:54.578Z,21.07
2019-01-19T19:55:23.595Z,23.47
2019-01-19T19:57:53.475Z,21.17
2019-01-19T20:00:23.161Z,22.97
2019-01-19T20:02:52.997Z,22.80
2019-01-19T20:05:22.651Z,21.70
2019-01-19T20:07:52.312Z,23.33
2019-01-19T20:10:22.560Z,21.90
2019-01-19T20:12:52.643Z,22.47
2019-01-19T20:15:22.721Z,21.73
2019-01-19T20:17:52.993Z,23.50
2019-01-19T20:20:22.844Z,21.63
2019-01-19T20:22:53.767Z,20.60
2019-01-19T20:25:24.006Z,21.13
2019-01-19T20:27:53.895Z,23.27
2019-01-19T20:30:23.820Z,18.30
2019-01-19T20:32:53.780Z,22.97
2019-01-19T20:35:25.483Z,20.33
2019-01-19T20:37:55.342Z,21.57
2019-01-19T20:40:26.522Z,21.27
2019-01-19T20:42:56.616Z,21.50
2019-01-19T20:45:27.659Z,22.83
2019-01-19T20:47:58.079Z,21.77
2019-01-19T20:50:28.089Z,22.30
2019-01-19T20:52:58.156Z,19.53
2019-01-19T20:55:28.811Z,23.00
2019-01-19T20:57:58.805Z,24.70
2019-01-19T21:00:30.717Z,26.73
2019-01-19T21:03:00.316Z,28.93
2019-01-19T21:05:30.535Z,30.57
2019-01-19T21:08:00.281Z,35.87
2019-01-19T21:10:31.975Z,27.53
2019-01-19T21:13:02.518Z,27.80
2019-01-19T21:15:32.455Z,25.30
2019-01-19T21:18:02.385Z,24.17
2019-01-19T21:20:32.416Z,25.20
2019-01-19T21:23:02.112Z,24.73
2019-01-19T21:25:31.861Z,28.63
2019-01-19T21:28:01.842Z,26.63
2019-01-19T21:30:31.512Z,26.83
2019-01-19T21:33:02.143Z,22.13
2019-01-19T21:35:32.137Z,20.93
2019-01-19T21:38:02.839Z,22.13
2019-01-19T21:40:38.906Z,21.17
2019-01-19T21:43:05.976Z,22.03
2019-01-19T21:45:36.141Z,23.57
2019-01-19T21:48:05.875Z,22.37
2019-01-19T21:50:36.448Z,20.60
2019-01-19T21:53:06.481Z,19.87
2019-01-19T21:55:36.229Z,19.07
2019-01-19T21:58:06.292Z,21.63
2019-01-19T22:00:36.367Z,20.70
2019-01-19T22:03:06.828Z,19.53
2019-01-19T22:05:37.034Z,20.03
2019-01-19T22:08:07.001Z,21.83
2019-01-19T22:10:36.962Z,20.57
2019-01-19T22:13:06.915Z,20.30
2019-01-19T22:15:37.617Z,21.53
2019-01-19T22:18:07.378Z,20.30
2019-01-19T22:20:38.042Z,22.00
2019-01-19T22:23:08.239Z,20.80
2019-01-19T22:25:38.793Z,19.03
2019-01-19T22:28:08.598Z,20.73
2019-01-19T22:30:38.994Z,22.27
2019-01-19T22:33:09.855Z,22.53
2019-01-19T22:35:39.846Z,21.87
2019-01-19T22:38:10.304Z,21.77
2019-01-19T22:40:40.060Z,19.57
2019-01-19T22:43:11.043Z,22.80
2019-01-19T22:45:40.830Z,20.63
2019-01-19T22:48:10.780Z,20.93
2019-01-19T22:50:40.585Z,20.43
2019-01-19T22:53:12.884Z,18.27
2019-01-19T22:55:42.727Z,21.03
2019-01-19T22:58:12.672Z,20.83
2019-01-19T23:00:51.437Z,21.50
2019-01-19T23:03:21.885Z,21.77
2019-01-19T23:05:52.439Z,21.00
2019-01-19T23:08:22.448Z,23.53
2019-01-19T23:10:52.346Z,20.10
2019-01-19T23:13:22.885Z,21.27
2019-01-19T23:15:52.585Z,21.63
2019-01-19T23:18:23.297Z,20.87
2019-01-19T23:20:53.379Z,21.40
2019-01-19T23:23:23.372Z,20.40
2019-01-19T23:25:53.072Z,21.60
2019-01-19T23:28:22.684Z,19.77
2019-01-19T23:30:52.323Z,20.43
2019-01-19T23:33:22.176Z,18.50
2019-01-19T23:35:52.044Z,21.87
2019-01-19T23:38:21.683Z,21.17
2019-01-19T23:40:51.630Z,22.33
2019-01-19T23:43:21.259Z,20.67
2019-01-19T23:45:51.119Z,19.33
2019-01-19T23:48:20.773Z,22.30
2019-01-19T23:50:50.504Z,22.40
2019-01-19T23:53:20.288Z,21.37
2019-01-19T23:55:49.978Z,21.30
2019-01-19T23:58:21.791Z,20.67
